createdAt,value
2023-03-30T00:02:00.166Z,7.40
2023-03-30T00:04:28.398Z,7.40
2023-03-30T00:06:56.832Z,7.50
2023-03-30T00:09:24.813Z,7.50
2023-03-30T00:11:55.417Z,7.50
2023-03-30T00:14:32.298Z,7.60
2023-03-30T00:17:00.974Z,7.70
2023-03-30T00:19:30.620Z,7.80
2023-03-30T00:21:59.000Z,7.80
2023-03-30T00:24:27.064Z,7.80
2023-03-30T00:26:55.861Z,7.80
2023-03-30T00:29:23.719Z,7.80
2023-03-30T00:31:52.351Z,7.80
2023-03-30T00:34:20.905Z,7.80
2023-03-30T00:36:53.840Z,7.80
2023-03-30T00:39:23.602Z,7.80
2023-03-30T00:41:52.710Z,7.80
2023-03-30T00:44:58.519Z,7.80
2023-03-30T00:47:26.904Z,7.80
2023-03-30T00:49:55.820Z,7.80
2023-03-30T00:52:25.641Z,7.80
2023-03-30T00:54:56.048Z,7.80
2023-03-30T00:57:27.569Z,7.80
2023-03-30T00:59:56.716Z,7.80
2023-03-30T01:02:25.460Z,7.90
2023-03-30T01:04:56.717Z,7.90
2023-03-30T01:07:26.051Z,7.90
2023-03-30T01:09:55.339Z,7.90
2023-03-30T01:12:24.129Z,8.00
2023-03-30T01:14:52.288Z,8.00
2023-03-30T01:17:33.728Z,8.00
2023-03-30T01:20:49.663Z,8.10
2023-03-30T01:23:38.013Z,8.10
2023-03-30T01:26:15.032Z,8.10
2023-03-30T01:29:44.662Z,8.20
2023-03-30T01:32:53.578Z,8.10
2023-03-30T01:35:27.559Z,8.20
2023-03-30T01:38:32.406Z,8.20
2023-03-30T01:41:13.293Z,8.30
2023-03-30T01:44:09.920Z,8.30
2023-03-30T01:47:16.777Z,8.30
2023-03-30T01:49:50.172Z,8.40
2023-03-30T01:52:29.091Z,8.40
2023-03-30T01:55:10.482Z,8.40
2023-03-30T01:58:08.386Z,8.30
2023-03-30T02:00:41.398Z,8.30
2023-03-30T02:03:17.960Z,8.30
2023-03-30T02:05:48.777Z,8.30
2023-03-30T02:08:22.260Z,8.30
2023-03-30T02:10:52.272Z,8.20
2023-03-30T02:13:21.771Z,8.20
2023-03-30T02:15:56.262Z,8.20
2023-03-30T02:18:24.784Z,8.30
2023-03-30T02:20:52.755Z,8.20
2023-03-30T02:23:24.241Z,8.20
2023-03-30T02:25:57.288Z,8.20
2023-03-30T02:28:26.002Z,8.30
2023-03-30T02:30:55.483Z,8.30
2023-03-30T02:33:35.655Z,8.30
2023-03-30T02:36:42.318Z,8.30
2023-03-30T02:39:41.367Z,8.30
2023-03-30T02:42:22.318Z,8.30
2023-03-30T02:45:28.424Z,8.40
2023-03-30T02:48:21.023Z,8.40
2023-03-30T02:50:55.027Z,8.40
2023-03-30T02:53:49.836Z,8.50
2023-03-30T02:56:45.767Z,8.50
2023-03-30T02:59:52.837Z,8.40
2023-03-30T03:02:29.610Z,8.40
2023-03-30T03:05:13.153Z,8.40
2023-03-30T03:08:16.078Z,8.40
2023-03-30T03:10:45.988Z,8.40
2023-03-30T03:13:16.570Z,8.40
2023-03-30T03:15:46.815Z,8.40
2023-03-30T03:18:15.070Z,8.40
2023-03-30T03:20:43.966Z,8.40
2023-03-30T03:23:12.997Z,8.40
2023-03-30T03:25:48.749Z,8.30
2023-03-30T03:28:19.752Z,8.30
2023-03-30T03:30:50.650Z,8.30
2023-03-30T03:33:22.373Z,8.30
2023-03-30T03:36:00.680Z,8.30
2023-03-30T03:38:33.445Z,8.30
2023-03-30T03:41:01.826Z,8.30
2023-03-30T03:43:32.590Z,8.20
2023-03-30T03:46:00.690Z,8.30
2023-03-30T03:48:29.245Z,8.30
2023-03-30T03:50:59.649Z,8.30
2023-03-30T03:53:32.871Z,8.30
2023-03-30T03:56:05.526Z,8.30
2023-03-30T03:58:34.939Z,8.20
2023-03-30T04:01:03.927Z,8.20
2023-03-30T04:03:33.944Z,8.20
2023-03-30T04:06:02.780Z,8.20
2023-03-30T04:08:31.329Z,8.20
2023-03-30T04:11:12.344Z,8.30
2023-03-30T04:14:01.761Z,8.20
2023-03-30T04:16:49.357Z,8.30
2023-03-30T04:19:39.395Z,8.30
2023-03-30T04:22:33.371Z,8.30
2023-03-30T04:25:22.998Z,8.30
2023-03-30T04:28:08.131Z,8.30
2023-03-30T04:31:11.448Z,8.30
2023-03-30T04:34:09.925Z,8.30
2023-03-30T04:36:58.876Z,8.30
2023-03-30T04:39:30.574Z,8.30
2023-03-30T04:42:37.981Z,8.20
2023-03-30T04:45:26.247Z,8.10
2023-03-30T04:48:33.254Z,8.10
2023-03-30T04:51:27.331Z,8.10
2023-03-30T04:54:22.341Z,8.10
2023-03-30T04:57:11.061Z,8.10
2023-03-30T05:00:10.278Z,8.10
2023-03-30T05:02:56.891Z,8.20
2023-03-30T05:05:45.752Z,8.20
2023-03-30T05:08:49.051Z,8.20
2023-03-30T05:11:37.595Z,8.20
2023-03-30T05:14:24.184Z,8.20
2023-03-30T05:17:13.623Z,8.30
2023-03-30T05:20:15.458Z,8.30
2023-03-30T05:22:55.327Z,8.40
2023-03-30T05:25:46.957Z,8.40
2023-03-30T05:28:43.271Z,8.50
2023-03-30T05:31:25.332Z,8.60
2023-03-30T05:34:17.940Z,8.60
2023-03-30T05:36:51.629Z,8.60
2023-03-30T05:39:41.485Z,8.60
2023-03-30T05:42:32.513Z,8.60
2023-03-30T05:45:11.617Z,8.60
2023-03-30T05:48:02.234Z,8.60
2023-03-30T05:51:09.184Z,8.80
2023-03-30T05:53:55.168Z,8.90
2023-03-30T05:56:43.819Z,9.00
2023-03-30T05:59:37.625Z,9.20
2023-03-30T06:02:41.639Z,9.40
2023-03-30T06:05:15.462Z,9.60
2023-03-30T06:07:46.126Z,9.60
2023-03-30T06:10:14.359Z,9.70
2023-03-30T06:12:43.975Z,9.80
2023-03-30T06:15:26.595Z,9.90
2023-03-30T06:18:10.002Z,10.00
2023-03-30T06:20:41.782Z,10.10
2023-03-30T06:23:11.289Z,10.30
2023-03-30T06:25:39.667Z,10.50
2023-03-30T06:28:08.773Z,10.80
2023-03-30T06:30:36.844Z,11.30
2023-03-30T06:33:10.611Z,11.90
2023-03-30T06:35:49.378Z,12.20
2023-03-30T06:38:23.279Z,12.40
2023-03-30T06:40:53.407Z,12.50
2023-03-30T06:43:25.082Z,12.50
2023-03-30T06:45:59.426Z,12.50
2023-03-30T06:48:28.165Z,12.60
2023-03-30T06:51:20.300Z,13.10
2023-03-30T06:53:48.980Z,14.20
2023-03-30T06:56:17.168Z,15.00
2023-03-30T06:59:03.358Z,15.80
2023-03-30T07:01:32.499Z,16.70
2023-03-30T07:04:27.079Z,16.80
2023-03-30T07:07:15.613Z,16.40
2023-03-30T07:09:43.882Z,16.00
2023-03-30T07:12:13.013Z,15.80
2023-03-30T07:14:41.153Z,15.60
2023-03-30T07:17:09.833Z,15.50
2023-03-30T07:19:39.023Z,15.40
2023-03-30T07:22:07.625Z,15.20
2023-03-30T07:24:37.526Z,15.00
2023-03-30T07:27:06.036Z,14.90
2023-03-30T07:29:35.021Z,14.70
2023-03-30T07:32:06.692Z,14.70
2023-03-30T07:34:35.058Z,15.00
2023-03-30T07:37:03.830Z,16.00
2023-03-30T07:39:34.027Z,16.50
2023-03-30T07:42:05.311Z,16.50
2023-03-30T07:44:33.281Z,16.40
2023-03-30T07:47:07.290Z,17.20
2023-03-30T07:49:37.356Z,18.70
2023-03-30T07:52:07.836Z,19.80
2023-03-30T07:54:45.142Z,20.60
2023-03-30T07:57:18.655Z,21.20
2023-03-30T07:59:47.122Z,21.70
2023-03-30T08:02:29.913Z,21.60
2023-03-30T08:04:58.488Z,21.30
2023-03-30T08:07:35.818Z,21.10
2023-03-30T08:10:13.829Z,20.90
2023-03-30T08:12:42.692Z,20.00
2023-03-30T08:15:11.080Z,19.00
2023-03-30T08:17:39.638Z,18.20
2023-03-30T08:20:11.293Z,17.80
2023-03-30T08:22:39.833Z,17.80
2023-03-30T08:25:08.115Z,17.80
2023-03-30T08:27:37.234Z,17.80
2023-03-30T08:30:05.951Z,17.60
2023-03-30T08:32:34.454Z,17.20
2023-03-30T08:35:02.937Z,16.90
2023-03-30T08:37:31.938Z,16.60
2023-03-30T08:40:00.015Z,16.40
2023-03-30T08:42:51.313Z,16.10
2023-03-30T08:45:19.386Z,16.00
2023-03-30T08:47:50.807Z,15.90
2023-03-30T08:50:37.335Z,15.80
2023-03-30T08:53:07.571Z,15.80
2023-03-30T08:56:00.103Z,15.70
2023-03-30T08:58:48.461Z,15.60
2023-03-30T09:01:30.008Z,15.50
2023-03-30T09:04:17.489Z,15.30
2023-03-30T09:07:07.963Z,15.30
2023-03-30T09:09:44.752Z,16.30
2023-03-30T09:12:37.715Z,16.90
2023-03-30T09:15:15.299Z,17.00
2023-03-30T09:17:49.237Z,17.10
2023-03-30T09:20:25.970Z,17.70
2023-03-30T09:22:56.184Z,18.80
2023-03-30T09:25:51.632Z,20.50
2023-03-30T09:28:39.447Z,21.70
2023-03-30T09:31:38.311Z,22.50
2023-03-30T09:34:17.976Z,22.50
2023-03-30T09:37:01.330Z,22.70
2023-03-30T09:39:32.280Z,22.50
2023-03-30T09:42:12.210Z,22.30
2023-03-30T09:44:53.284Z,21.50
2023-03-30T09:47:31.550Z,20.70
2023-03-30T09:50:06.435Z,20.10
2023-03-30T09:52:38.095Z,19.70
2023-03-30T09:55:34.932Z,19.30
2023-03-30T09:58:20.723Z,19.00
2023-03-30T10:01:07.461Z,18.50
2023-03-30T10:03:36.502Z,18.10
2023-03-30T10:06:25.083Z,17.60
2023-03-30T10:08:56.637Z,17.30
2023-03-30T10:11:36.690Z,17.10
2023-03-30T10:14:08.546Z,17.00
2023-03-30T10:16:37.182Z,17.00
2023-03-30T10:19:18.185Z,17.10
2023-03-30T10:21:47.448Z,17.20
2023-03-30T10:24:15.458Z,17.40
2023-03-30T10:26:47.372Z,17.40
2023-03-30T10:29:22.170Z,17.30
2023-03-30T10:31:58.289Z,17.20
2023-03-30T10:34:48.557Z,17.10
2023-03-30T10:37:40.770Z,16.90
2023-03-30T10:40:22.048Z,16.50
2023-03-30T10:42:57.162Z,16.10
2023-03-30T10:45:45.639Z,15.80
2023-03-30T10:48:42.783Z,15.50
2023-03-30T10:51:22.426Z,15.10
2023-03-30T10:54:11.391Z,15.00
2023-03-30T10:56:49.742Z,14.80
2023-03-30T10:59:33.060Z,14.80
2023-03-30T11:02:26.687Z,14.70
2023-03-30T11:05:12.696Z,14.80
2023-03-30T11:07:55.841Z,14.90
2023-03-30T11:10:46.330Z,15.10
2023-03-30T11:13:21.989Z,15.00
2023-03-30T11:15:57.743Z,15.00
2023-03-30T11:18:33.103Z,14.90
2023-03-30T11:21:11.799Z,14.80
2023-03-30T11:24:13.358Z,14.70
2023-03-30T11:27:17.774Z,14.70
2023-03-30T11:30:09.405Z,14.80
2023-03-30T11:33:12.459Z,14.80
2023-03-30T11:35:54.325Z,14.80
2023-03-30T11:38:54.919Z,14.70
2023-03-30T11:41:51.052Z,14.60
2023-03-30T11:44:19.002Z,14.50
2023-03-30T11:46:53.720Z,14.40
2023-03-30T11:49:35.359Z,14.30
2023-03-30T11:52:47.982Z,14.20
2023-03-30T11:55:24.099Z,14.10
2023-03-30T11:58:07.794Z,14.10
2023-03-30T12:01:05.272Z,14.10
2023-03-30T12:03:42.987Z,14.00
2023-03-30T12:06:39.358Z,14.00
2023-03-30T12:09:29.566Z,13.90
2023-03-30T12:12:16.343Z,13.70
2023-03-30T12:15:04.109Z,13.70
2023-03-30T12:17:44.108Z,13.70
2023-03-30T12:20:18.397Z,13.60
2023-03-30T12:23:02.721Z,13.60
2023-03-30T12:26:10.842Z,13.50
2023-03-30T12:29:11.286Z,13.50
2023-03-30T12:31:57.142Z,13.60
2023-03-30T12:34:28.888Z,13.60
2023-03-30T12:36:58.550Z,13.60
2023-03-30T12:39:31.626Z,13.60
2023-03-30T12:42:09.534Z,13.70
2023-03-30T12:44:47.200Z,13.70
2023-03-30T12:47:19.499Z,13.70
2023-03-30T12:50:31.102Z,13.60
2023-03-30T12:53:05.404Z,13.50
2023-03-30T12:55:58.019Z,13.50
2023-03-30T12:58:59.115Z,13.40
2023-03-30T13:01:51.815Z,13.30
2023-03-30T13:04:25.587Z,13.50
2023-03-30T13:06:56.898Z,13.50
2023-03-30T13:09:31.823Z,13.50
2023-03-30T13:12:01.007Z,13.50
2023-03-30T13:14:36.054Z,13.50
2023-03-30T13:17:04.530Z,13.50
2023-03-30T13:19:32.973Z,13.50
2023-03-30T13:22:13.697Z,13.60
2023-03-30T13:24:58.117Z,13.60
2023-03-30T13:27:37.863Z,13.70
2023-03-30T13:30:12.475Z,13.80
2023-03-30T13:33:02.329Z,13.90
2023-03-30T13:35:49.544Z,14.00
2023-03-30T13:38:45.201Z,14.20
2023-03-30T13:41:13.315Z,14.50
2023-03-30T13:43:54.894Z,14.60
2023-03-30T13:47:02.077Z,14.90
2023-03-30T13:49:57.823Z,15.20
2023-03-30T13:52:47.269Z,15.80
2023-03-30T13:55:31.216Z,16.60
2023-03-30T13:58:09.525Z,17.00
2023-03-30T14:01:16.159Z,17.20
2023-03-30T14:03:59.800Z,17.20
2023-03-30T14:06:30.989Z,16.80
2023-03-30T14:09:08.065Z,16.20
2023-03-30T14:11:46.668Z,15.80
2023-03-30T14:14:23.354Z,15.60
2023-03-30T14:16:51.786Z,15.50
2023-03-30T14:19:28.887Z,15.50
2023-03-30T14:22:05.495Z,15.50
2023-03-30T14:24:35.692Z,15.50
2023-03-30T14:27:07.195Z,15.60
2023-03-30T14:29:45.331Z,15.60
2023-03-30T14:32:16.567Z,15.60
2023-03-30T14:34:50.251Z,15.70
2023-03-30T14:37:21.518Z,15.80
2023-03-30T14:39:56.199Z,15.80
2023-03-30T14:42:34.575Z,15.80
2023-03-30T14:45:03.603Z,15.80
2023-03-30T14:47:32.918Z,15.70
2023-03-30T14:50:06.138Z,15.70
2023-03-30T14:52:41.074Z,15.60
2023-03-30T14:55:18.874Z,15.40
2023-03-30T14:57:48.034Z,15.20
2023-03-30T15:00:23.077Z,15.10
2023-03-30T15:03:19.672Z,15.00
2023-03-30T15:05:55.479Z,14.80
2023-03-30T15:08:27.453Z,14.70
2023-03-30T15:10:58.689Z,14.60
2023-03-30T15:13:38.210Z,14.60
2023-03-30T15:16:08.146Z,14.50
2023-03-30T15:18:38.042Z,14.50
2023-03-30T15:21:10.261Z,14.50
2023-03-30T15:23:41.473Z,14.50
2023-03-30T15:26:12.432Z,14.50
2023-03-30T15:28:45.616Z,14.50
2023-03-30T15:31:15.806Z,14.50
2023-03-30T15:33:51.785Z,14.50
2023-03-30T15:36:38.171Z,14.50
2023-03-30T15:39:21.542Z,14.50
2023-03-30T15:42:10.173Z,14.50
2023-03-30T15:44:40.910Z,14.60
2023-03-30T15:47:18.331Z,14.60
2023-03-30T15:49:50.998Z,14.70
2023-03-30T15:52:25.013Z,14.90
2023-03-30T15:54:55.699Z,15.00
2023-03-30T15:57:27.938Z,15.10
2023-03-30T16:00:02.099Z,15.20
2023-03-30T16:02:32.833Z,15.10
2023-03-30T16:05:06.273Z,15.00
2023-03-30T16:07:36.589Z,14.80
2023-03-30T16:10:04.983Z,14.70
2023-03-30T16:12:42.827Z,14.60
2023-03-30T16:15:19.448Z,14.60
2023-03-30T16:17:48.027Z,14.50
2023-03-30T16:20:27.629Z,14.40
2023-03-30T16:22:56.559Z,14.30
2023-03-30T16:25:34.499Z,14.20
2023-03-30T16:28:17.929Z,14.10
2023-03-30T16:30:48.624Z,14.00
2023-03-30T16:33:17.596Z,13.90
2023-03-30T16:35:46.714Z,13.80
2023-03-30T16:38:19.507Z,13.70
2023-03-30T16:40:59.773Z,13.70
2023-03-30T16:43:29.307Z,13.60
2023-03-30T16:45:58.971Z,13.50
2023-03-30T16:48:30.604Z,13.50
2023-03-30T16:50:58.917Z,13.50
2023-03-30T16:53:30.334Z,13.30
2023-03-30T16:55:58.864Z,13.30
2023-03-30T16:58:29.171Z,13.30
2023-03-30T17:01:04.655Z,13.30
2023-03-30T17:03:35.485Z,13.30
2023-03-30T17:06:03.938Z,13.40
2023-03-30T17:08:33.019Z,13.40
2023-03-30T17:11:05.334Z,13.50
2023-03-30T17:13:35.517Z,13.50
2023-03-30T17:16:03.873Z,13.50
2023-03-30T17:18:33.100Z,13.50
2023-03-30T17:21:06.198Z,13.30
2023-03-30T17:23:35.721Z,13.10
2023-03-30T17:26:04.844Z,12.60
2023-03-30T17:28:35.928Z,12.20
2023-03-30T17:31:09.930Z,11.80
2023-03-30T17:33:40.599Z,11.50
2023-03-30T17:36:25.123Z,11.30
2023-03-30T17:38:58.252Z,11.10
2023-03-30T17:41:29.661Z,11.00
2023-03-30T17:43:59.259Z,10.90
2023-03-30T17:46:29.139Z,10.80
2023-03-30T17:49:00.604Z,10.70
2023-03-30T17:51:29.521Z,10.60
2023-03-30T17:53:59.015Z,10.60
2023-03-30T17:56:29.080Z,10.60
2023-03-30T17:58:59.564Z,10.50
2023-03-30T18:01:29.548Z,10.50
2023-03-30T18:03:58.546Z,10.50
2023-03-30T18:06:28.185Z,10.40
2023-03-30T18:08:57.699Z,10.30
2023-03-30T18:11:28.047Z,10.30
2023-03-30T18:13:58.674Z,10.20
2023-03-30T18:16:27.415Z,10.20
2023-03-30T18:19:00.317Z,10.20
2023-03-30T18:21:30.168Z,10.20
2023-03-30T18:24:02.286Z,10.20
2023-03-30T18:26:35.392Z,10.10
2023-03-30T18:29:24.580Z,10.10
2023-03-30T18:31:55.489Z,10.10
2023-03-30T18:34:31.514Z,10.10
2023-03-30T18:37:01.351Z,10.10
2023-03-30T18:39:31.207Z,10.10
2023-03-30T18:42:02.753Z,10.10
2023-03-30T18:44:34.987Z,10.00
2023-03-30T18:47:05.040Z,10.00
2023-03-30T18:49:34.801Z,10.00
2023-03-30T18:52:05.906Z,10.00
2023-03-30T18:54:41.985Z,10.00
2023-03-30T18:57:11.900Z,9.90
2023-03-30T18:59:42.913Z,9.80
2023-03-30T19:02:13.227Z,9.80
2023-03-30T19:04:43.912Z,9.70
2023-03-30T19:07:13.014Z,9.70
2023-03-30T19:09:43.532Z,9.60
2023-03-30T19:12:15.878Z,9.60
2023-03-30T19:14:47.138Z,9.60
2023-03-30T19:17:19.185Z,9.50
2023-03-30T19:19:50.752Z,9.50
2023-03-30T19:22:20.359Z,9.50
2023-03-30T19:24:55.195Z,9.50
2023-03-30T19:27:24.603Z,9.50
2023-03-30T19:29:54.486Z,9.40
2023-03-30T19:32:27.285Z,9.40
2023-03-30T19:34:58.641Z,9.40
2023-03-30T19:37:31.816Z,9.30
2023-03-30T19:40:08.442Z,9.20
2023-03-30T19:42:39.211Z,9.20
2023-03-30T19:45:10.841Z,9.20
2023-03-30T19:47:41.261Z,9.10
2023-03-30T19:50:16.805Z,9.00
2023-03-30T19:52:49.465Z,9.00
2023-03-30T19:55:22.346Z,9.00
2023-03-30T19:57:51.214Z,8.90
2023-03-30T20:00:22.508Z,8.90
2023-03-30T20:02:54.697Z,8.80
2023-03-30T20:05:26.193Z,8.80
2023-03-30T20:07:55.184Z,8.80
2023-03-30T20:10:28.910Z,8.80
2023-03-30T20:12:58.010Z,8.70
2023-03-30T20:15:27.716Z,8.60
2023-03-30T20:17:57.495Z,8.60
2023-03-30T20:20:27.204Z,8.60
2023-03-30T20:22:57.153Z,8.60
2023-03-30T20:25:26.045Z,8.60
2023-03-30T20:27:54.717Z,8.60
2023-03-30T20:30:24.232Z,8.60
2023-03-30T20:33:06.725Z,8.60
2023-03-30T20:35:38.267Z,8.50
2023-03-30T20:38:08.840Z,8.50
2023-03-30T20:40:37.898Z,8.50
2023-03-30T20:43:11.245Z,8.50
2023-03-30T20:45:46.733Z,8.50
2023-03-30T20:48:26.779Z,8.50
2023-03-30T20:50:56.536Z,8.50
2023-03-30T20:53:26.453Z,8.50
2023-03-30T20:55:55.982Z,8.50
2023-03-30T20:58:26.526Z,8.60
2023-03-30T21:00:58.466Z,8.60
2023-03-30T21:03:29.803Z,8.60
2023-03-30T21:06:03.965Z,8.80
2023-03-30T21:08:32.625Z,8.80
2023-03-30T21:11:01.769Z,8.80
2023-03-30T21:13:30.597Z,8.80
2023-03-30T21:16:05.498Z,8.80
2023-03-30T21:18:34.987Z,8.80
2023-03-30T21:21:03.788Z,8.90
2023-03-30T21:23:31.629Z,8.90
2023-03-30T21:26:03.250Z,8.90
2023-03-30T21:28:31.700Z,8.90
2023-03-30T21:31:02.679Z,8.90
2023-03-30T21:33:30.936Z,8.80
2023-03-30T21:36:00.316Z,8.80
2023-03-30T21:38:29.848Z,8.90
2023-03-30T21:41:02.612Z,8.90
2023-03-30T21:43:33.025Z,9.00
2023-03-30T21:46:04.504Z,9.00
2023-03-30T21:48:36.561Z,9.10
2023-03-30T21:51:14.566Z,9.20
2023-03-30T21:53:43.967Z,9.20
2023-03-30T21:56:13.260Z,9.20
2023-03-30T21:58:41.441Z,9.20
2023-03-30T22:01:12.957Z,9.20
2023-03-30T22:03:42.301Z,9.30
2023-03-30T22:06:13.494Z,9.40
2023-03-30T22:08:42.529Z,9.40
2023-03-30T22:11:16.959Z,9.40
2023-03-30T22:13:47.588Z,9.40
2023-03-30T22:16:26.121Z,9.40
2023-03-30T22:18:55.000Z,9.40
2023-03-30T22:21:25.286Z,9.40
2023-03-30T22:23:55.131Z,9.40
2023-03-30T22:26:23.911Z,9.40
2023-03-30T22:28:51.900Z,9.40
2023-03-30T22:31:20.236Z,9.30
2023-03-30T22:33:48.754Z,9.20
2023-03-30T22:36:19.896Z,9.10
2023-03-30T22:38:49.712Z,9.00
2023-03-30T22:41:24.355Z,9.00
2023-03-30T22:43:57.051Z,8.90
2023-03-30T22:46:27.872Z,8.80
2023-03-30T22:48:56.265Z,8.80
2023-03-30T22:51:28.538Z,8.70
2023-03-30T22:54:00.761Z,8.60
2023-03-30T22:56:30.400Z,8.60
2023-03-30T22:58:59.799Z,8.60
2023-03-30T23:01:32.794Z,8.60
2023-03-30T23:04:01.793Z,8.50
2023-03-30T23:06:31.492Z,8.50
2023-03-30T23:09:02.096Z,8.50
2023-03-30T23:11:32.034Z,8.50
2023-03-30T23:14:05.673Z,8.50
2023-03-30T23:16:37.949Z,8.50
2023-03-30T23:19:07.916Z,8.50
2023-03-30T23:21:36.524Z,8.50
2023-03-30T23:24:08.061Z,8.50
2023-03-30T23:26:36.961Z,8.50
2023-03-30T23:29:05.643Z,8.60
2023-03-30T23:31:35.096Z,8.60
2023-03-30T23:34:03.139Z,8.60
2023-03-30T23:36:31.486Z,8.60
2023-03-30T23:38:59.455Z,8.60
2023-03-30T23:41:29.264Z,8.60
2023-03-30T23:43:57.222Z,8.60
2023-03-30T23:46:25.950Z,8.60
2023-03-30T23:48:54.598Z,8.60
2023-03-30T23:51:22.876Z,8.60
2023-03-30T23:53:54.849Z,8.60
2023-03-30T23:56:27.657Z,8.60
2023-03-30T23:58:55.922Z,8.60
